createdAt,value
2022-09-28T00:01:27.107Z,95.75
2022-09-28T00:03:30.321Z,95.46
2022-09-28T00:05:33.362Z,95.52
2022-09-28T00:07:36.341Z,95.87
2022-09-28T00:09:40.784Z,96.61
2022-09-28T00:11:44.282Z,96.66
2022-09-28T00:13:51.377Z,96.16
2022-09-28T00:16:02.133Z,96.11
2022-09-28T00:18:05.264Z,95.79
2022-09-28T00:20:09.744Z,96.40
2022-09-28T00:22:12.759Z,96.92
2022-09-28T00:24:16.151Z,96.41
2022-09-28T00:26:20.594Z,97.41
2022-09-28T00:28:23.732Z,97.44
2022-09-28T00:30:26.695Z,97.35
2022-09-28T00:32:29.959Z,97.61
2022-09-28T00:34:34.762Z,97.11
2022-09-28T00:36:37.963Z,98.11
2022-09-28T00:38:40.998Z,96.75
2022-09-28T00:40:44.112Z,98.27
2022-09-28T00:42:48.546Z,97.87
2022-09-28T00:44:52.175Z,97.19
2022-09-28T00:46:56.992Z,98.10
2022-09-28T00:49:03.383Z,97.98
2022-09-28T00:51:10.159Z,98.45
2022-09-28T00:53:16.826Z,98.40
2022-09-28T00:55:22.684Z,98.15
2022-09-28T00:57:26.115Z,98.96
2022-09-28T00:59:31.308Z,98.77
2022-09-28T01:01:34.350Z,97.50
2022-09-28T01:03:41.224Z,98.74
2022-09-28T01:05:44.872Z,98.39
2022-09-28T01:07:48.343Z,98.00
2022-09-28T01:09:51.700Z,97.51
2022-09-28T01:11:55.216Z,98.99
2022-09-28T01:13:58.994Z,98.15
2022-09-28T01:16:08.755Z,96.85
2022-09-28T01:18:18.755Z,96.94
2022-09-28T01:20:31.284Z,97.96
2022-09-28T01:22:52.501Z,97.04
2022-09-28T01:25:01.148Z,98.92
2022-09-28T01:27:17.098Z,98.43
2022-09-28T01:29:28.886Z,98.42
2022-09-28T01:31:34.269Z,98.34
2022-09-28T01:33:40.216Z,97.31
2022-09-28T01:35:47.461Z,97.45
2022-09-28T01:37:54.034Z,97.83
2022-09-28T01:39:59.607Z,97.71
2022-09-28T01:42:09.032Z,97.27
2022-09-28T01:44:17.138Z,97.40
2022-09-28T01:46:21.896Z,98.42
2022-09-28T01:48:28.764Z,98.95
2022-09-28T01:50:36.725Z,97.15
2022-09-28T01:52:45.632Z,98.12
2022-09-28T01:54:52.852Z,96.97
2022-09-28T01:57:00.084Z,98.17
2022-09-28T01:59:11.133Z,96.83
2022-09-28T02:01:17.600Z,97.82
2022-09-28T02:03:25.176Z,98.61
2022-09-28T02:05:38.573Z,98.60
2022-09-28T02:07:43.679Z,97.52
2022-09-28T02:09:49.446Z,98.01
2022-09-28T02:11:56.051Z,97.66
2022-09-28T02:14:02.606Z,98.90
2022-09-28T02:16:11.919Z,98.63
2022-09-28T02:18:15.245Z,98.28
2022-09-28T02:20:19.164Z,98.13
2022-09-28T02:22:26.928Z,100.00
2022-09-28T02:24:34.891Z,99.72
2022-09-28T02:26:41.554Z,98.93
2022-09-28T02:28:44.623Z,99.23
2022-09-28T02:30:48.070Z,100.00
2022-09-28T02:32:55.349Z,100.00
2022-09-28T02:34:58.458Z,100.00
2022-09-28T02:37:02.647Z,100.00
2022-09-28T02:39:06.689Z,100.00
2022-09-28T02:41:18.576Z,100.00
2022-09-28T02:43:25.949Z,100.00
2022-09-28T02:45:38.262Z,99.96
2022-09-28T02:47:55.429Z,100.00
2022-09-28T02:50:05.772Z,100.00
2022-09-28T02:52:18.633Z,100.00
2022-09-28T02:54:32.281Z,100.00
2022-09-28T02:56:52.091Z,100.00
2022-09-28T02:59:01.319Z,100.00
2022-09-28T03:01:07.742Z,100.00
2022-09-28T03:03:15.785Z,100.00
2022-09-28T03:05:21.983Z,100.00
2022-09-28T03:07:28.668Z,100.00
2022-09-28T03:09:36.208Z,100.00
2022-09-28T03:11:42.017Z,100.00
2022-09-28T03:13:45.346Z,100.00
2022-09-28T03:15:49.166Z,100.00
2022-09-28T03:17:53.745Z,100.00
2022-09-28T03:19:58.204Z,100.00
2022-09-28T03:22:01.830Z,100.00
2022-09-28T03:24:05.930Z,100.00
2022-09-28T03:26:09.586Z,100.00
2022-09-28T03:28:12.716Z,100.00
2022-09-28T03:30:17.533Z,100.00
2022-09-28T03:32:22.668Z,100.00
2022-09-28T03:34:25.739Z,100.00
2022-09-28T03:36:30.464Z,100.00
2022-09-28T03:38:33.548Z,100.00
2022-09-28T03:40:36.777Z,100.00
2022-09-28T03:42:40.137Z,100.00
2022-09-28T03:44:43.571Z,100.00
2022-09-28T03:46:47.529Z,100.00
2022-09-28T03:48:50.626Z,100.00
2022-09-28T03:50:55.146Z,100.00
2022-09-28T03:53:04.776Z,100.00
2022-09-28T03:55:08.455Z,100.00
2022-09-28T03:57:11.454Z,100.00
2022-09-28T03:59:14.558Z,100.00
2022-09-28T04:01:18.386Z,100.00
2022-09-28T04:03:23.079Z,100.00
2022-09-28T04:05:26.038Z,100.00
2022-09-28T04:07:31.025Z,100.00
2022-09-28T04:09:38.215Z,100.00
2022-09-28T04:12:02.385Z,100.00
2022-09-28T04:14:05.595Z,100.00
2022-09-28T04:16:09.247Z,100.00
2022-09-28T04:18:13.561Z,100.00
2022-09-28T04:20:36.834Z,100.00
2022-09-28T04:22:44.047Z,100.00
2022-09-28T04:24:48.459Z,100.00
2022-09-28T04:26:51.553Z,100.00
2022-09-28T04:29:12.714Z,100.00
2022-09-28T04:31:18.156Z,100.00
2022-09-28T04:33:21.196Z,100.00
2022-09-28T04:35:24.231Z,100.00
2022-09-28T04:37:27.311Z,100.00
2022-09-28T04:39:30.403Z,100.00
2022-09-28T04:41:34.816Z,100.00
2022-09-28T04:43:37.780Z,100.00
2022-09-28T04:45:40.838Z,100.00
2022-09-28T04:47:47.110Z,100.00
2022-09-28T04:49:59.576Z,100.00
2022-09-28T04:52:08.646Z,100.00
2022-09-28T04:54:11.634Z,100.00
2022-09-28T04:56:19.082Z,100.00
2022-09-28T04:58:23.442Z,100.00
2022-09-28T05:00:27.100Z,100.00
2022-09-28T05:02:42.210Z,100.00
2022-09-28T05:05:04.034Z,100.00
2022-09-28T05:07:21.843Z,100.00
2022-09-28T05:09:25.234Z,100.00
2022-09-28T05:11:28.284Z,100.00
2022-09-28T05:13:35.608Z,100.00
2022-09-28T05:15:39.500Z,100.00
2022-09-28T05:17:42.528Z,100.00
2022-09-28T05:19:54.351Z,100.00
2022-09-28T05:21:58.139Z,100.00
2022-09-28T05:24:05.306Z,100.00
2022-09-28T05:26:08.780Z,100.00
2022-09-28T05:28:12.502Z,100.00
2022-09-28T05:30:35.656Z,100.00
2022-09-28T05:33:02.060Z,100.00
2022-09-28T05:35:17.511Z,100.00
2022-09-28T05:37:22.580Z,100.00
2022-09-28T05:39:25.766Z,100.00
2022-09-28T05:41:28.728Z,100.00
2022-09-28T05:43:31.929Z,100.00
2022-09-28T05:45:36.390Z,100.00
2022-09-28T05:47:41.264Z,100.00
2022-09-28T05:49:44.724Z,100.00
2022-09-28T05:51:48.501Z,100.00
2022-09-28T05:53:51.668Z,100.00
2022-09-28T05:55:58.662Z,100.00
2022-09-28T05:58:02.394Z,100.00
2022-09-28T06:00:07.868Z,100.00
2022-09-28T06:02:17.112Z,100.00
2022-09-28T06:04:20.861Z,100.00
2022-09-28T06:06:24.757Z,100.00
2022-09-28T06:08:28.112Z,100.00
2022-09-28T06:10:46.734Z,100.00
2022-09-28T06:12:54.003Z,100.00
2022-09-28T06:14:57.900Z,100.00
2022-09-28T06:17:00.947Z,100.00
2022-09-28T06:19:06.196Z,100.00
2022-09-28T06:21:44.698Z,100.00
2022-09-28T06:23:49.623Z,100.00
2022-09-28T06:25:54.256Z,100.00
2022-09-28T06:27:58.590Z,100.00
2022-09-28T06:30:02.208Z,100.00
2022-09-28T06:32:07.370Z,100.00
2022-09-28T06:34:13.064Z,100.00
2022-09-28T06:36:16.303Z,100.00
2022-09-28T06:38:19.398Z,100.00
2022-09-28T06:40:23.214Z,100.00
2022-09-28T06:42:26.234Z,100.00
2022-09-28T06:44:54.180Z,100.00
2022-09-28T06:47:26.316Z,100.00
2022-09-28T06:49:47.755Z,100.00
2022-09-28T06:51:53.433Z,100.00
2022-09-28T06:54:12.264Z,100.00
2022-09-28T06:56:16.811Z,100.00
2022-09-28T06:58:21.726Z,100.00
2022-09-28T07:00:25.825Z,100.00
2022-09-28T07:02:28.875Z,100.00
2022-09-28T07:04:51.687Z,100.00
2022-09-28T07:07:15.272Z,100.00
2022-09-28T07:09:56.962Z,100.00
2022-09-28T07:12:26.284Z,100.00
2022-09-28T07:14:46.828Z,100.00
2022-09-28T07:17:10.761Z,100.00
2022-09-28T07:19:14.412Z,100.00
2022-09-28T07:21:27.657Z,100.00
2022-09-28T07:23:35.161Z,100.00
2022-09-28T07:26:07.519Z,100.00
2022-09-28T07:28:41.497Z,100.00
2022-09-28T07:31:04.847Z,100.00
2022-09-28T07:33:21.660Z,100.00
2022-09-28T07:35:28.134Z,100.00
2022-09-28T07:37:34.451Z,100.00
2022-09-28T07:39:57.425Z,100.00
2022-09-28T07:42:02.510Z,100.00
2022-09-28T07:44:07.475Z,100.00
2022-09-28T07:46:12.950Z,100.00
2022-09-28T07:48:21.891Z,100.00
2022-09-28T07:50:37.138Z,100.00
2022-09-28T07:52:50.822Z,99.71
2022-09-28T07:55:07.382Z,100.00
2022-09-28T07:57:29.823Z,99.79
2022-09-28T08:00:00.273Z,100.00
2022-09-28T08:02:22.448Z,99.84
2022-09-28T08:04:28.349Z,100.00
2022-09-28T08:06:32.349Z,100.00
2022-09-28T08:08:37.905Z,100.00
2022-09-28T08:10:46.794Z,99.36
2022-09-28T08:13:16.348Z,100.00
2022-09-28T08:15:37.120Z,100.00
2022-09-28T08:18:07.077Z,99.76
2022-09-28T08:20:28.152Z,100.00
2022-09-28T08:22:32.417Z,100.00
2022-09-28T08:24:38.307Z,100.00
2022-09-28T08:26:43.241Z,100.00
2022-09-28T08:28:48.115Z,100.00
2022-09-28T08:31:10.100Z,99.80
2022-09-28T08:33:43.196Z,99.39
2022-09-28T08:36:06.057Z,99.58
2022-09-28T08:38:28.544Z,98.64
2022-09-28T08:40:59.256Z,98.29
2022-09-28T08:43:35.698Z,98.73
2022-09-28T08:46:03.076Z,98.75
2022-09-28T08:49:01.270Z,97.93
2022-09-28T08:51:50.728Z,97.23
2022-09-28T08:54:11.060Z,96.89
2022-09-28T08:56:33.074Z,95.77
2022-09-28T08:58:41.000Z,95.78
2022-09-28T09:00:47.524Z,96.37
2022-09-28T09:02:51.207Z,95.73
2022-09-28T09:04:55.897Z,95.70
2022-09-28T09:07:22.540Z,95.83
2022-09-28T09:09:49.149Z,94.26
2022-09-28T09:12:00.851Z,93.56
2022-09-28T09:14:20.864Z,94.16
2022-09-28T09:16:33.791Z,94.70
2022-09-28T09:18:57.350Z,94.08
2022-09-28T09:21:37.331Z,94.45
2022-09-28T09:23:49.523Z,93.12
2022-09-28T09:25:55.423Z,94.75
2022-09-28T09:28:28.441Z,94.92
2022-09-28T09:30:36.191Z,94.26
2022-09-28T09:32:54.228Z,93.74
2022-09-28T09:35:14.872Z,93.02
2022-09-28T09:37:54.147Z,92.67
2022-09-28T09:40:30.508Z,92.81
2022-09-28T09:42:44.386Z,92.10
2022-09-28T09:45:46.611Z,91.96
2022-09-28T09:48:10.160Z,92.33
2022-09-28T09:50:30.020Z,91.95
2022-09-28T09:52:39.910Z,91.19
2022-09-28T09:54:48.132Z,90.88
2022-09-28T09:57:11.191Z,91.15
2022-09-28T09:59:38.151Z,90.05
2022-09-28T10:01:49.702Z,90.24
2022-09-28T10:04:18.477Z,90.03
2022-09-28T10:06:27.498Z,90.47
2022-09-28T10:08:32.701Z,90.97
2022-09-28T10:10:38.270Z,90.25
2022-09-28T10:12:49.714Z,89.83
2022-09-28T10:14:55.315Z,91.20
2022-09-28T10:17:02.655Z,91.21
2022-09-28T10:19:32.861Z,87.93
2022-09-28T10:21:54.963Z,89.59
2022-09-28T10:24:04.154Z,89.50
2022-09-28T10:26:11.260Z,88.73
2022-09-28T10:28:19.715Z,89.73
2022-09-28T10:30:24.360Z,88.55
2022-09-28T10:32:38.252Z,87.28
2022-09-28T10:34:41.863Z,86.76
2022-09-28T10:36:55.203Z,86.99
2022-09-28T10:38:58.933Z,87.05
2022-09-28T10:41:11.346Z,86.29
2022-09-28T10:43:29.895Z,86.67
2022-09-28T10:45:38.645Z,85.88
2022-09-28T10:47:44.476Z,86.12
2022-09-28T10:49:51.324Z,84.69
2022-09-28T10:51:57.533Z,85.80
2022-09-28T10:54:15.401Z,85.09
2022-09-28T10:56:23.604Z,85.54
2022-09-28T10:58:40.516Z,85.25
2022-09-28T11:00:46.836Z,84.81
2022-09-28T11:03:00.403Z,84.88
2022-09-28T11:05:06.534Z,83.51
2022-09-28T11:07:18.214Z,84.19
2022-09-28T11:09:30.639Z,83.91
2022-09-28T11:11:41.668Z,83.59
2022-09-28T11:13:47.238Z,84.19
2022-09-28T11:15:54.665Z,84.58
2022-09-28T11:18:22.501Z,84.19
2022-09-28T11:20:35.785Z,85.60
2022-09-28T11:22:44.316Z,84.25
2022-09-28T11:24:48.609Z,83.58
2022-09-28T11:26:53.698Z,84.74
2022-09-28T11:29:00.750Z,84.72
2022-09-28T11:31:30.421Z,84.57
2022-09-28T11:33:39.987Z,84.86
2022-09-28T11:36:29.995Z,83.92
2022-09-28T11:38:34.969Z,85.54
2022-09-28T11:41:15.240Z,84.08
2022-09-28T11:43:28.198Z,83.39
2022-09-28T11:45:39.798Z,84.46
2022-09-28T11:47:48.590Z,83.37
2022-09-28T11:50:00.396Z,82.51
2022-09-28T11:52:06.554Z,84.28
2022-09-28T11:54:14.820Z,82.24
2022-09-28T11:56:26.309Z,82.58
2022-09-28T11:58:34.241Z,81.44
2022-09-28T12:00:43.502Z,80.54
2022-09-28T12:02:51.798Z,78.19
2022-09-28T12:05:10.846Z,77.55
2022-09-28T12:07:16.972Z,78.50
2022-09-28T12:09:24.039Z,76.55
2022-09-28T12:11:37.390Z,77.71
2022-09-28T12:13:56.241Z,75.38
2022-09-28T12:16:45.153Z,76.12
2022-09-28T12:18:28.483Z,75.87
2022-09-28T12:20:35.367Z,74.29
2022-09-28T12:22:42.248Z,75.13
2022-09-28T12:24:50.465Z,75.92
2022-09-28T12:26:56.200Z,75.94
2022-09-28T12:29:02.384Z,75.17
2022-09-28T12:31:14.629Z,74.86
2022-09-28T12:33:18.115Z,75.69
2022-09-28T12:35:26.802Z,74.48
2022-09-28T12:37:51.487Z,76.88
2022-09-28T12:40:24.594Z,74.62
2022-09-28T12:42:47.580Z,73.68
2022-09-28T12:45:23.633Z,73.58
2022-09-28T12:47:49.641Z,74.86
2022-09-28T12:52:30.414Z,74.27
2022-09-28T12:54:50.658Z,74.70
2022-09-28T12:57:01.971Z,73.79
2022-09-28T12:59:12.366Z,73.40
2022-09-28T13:01:32.888Z,72.30
2022-09-28T13:04:07.585Z,73.72
2022-09-28T13:06:27.166Z,71.25
2022-09-28T13:08:35.485Z,72.15
2022-09-28T13:10:43.051Z,72.84
2022-09-28T13:13:00.034Z,69.85
2022-09-28T13:15:34.242Z,69.35
2022-09-28T13:17:44.010Z,71.13
2022-09-28T13:19:54.573Z,71.00
2022-09-28T13:22:01.290Z,69.15
2022-09-28T13:24:20.904Z,69.91
2022-09-28T13:26:33.434Z,70.85
2022-09-28T13:28:37.982Z,71.32
2022-09-28T13:30:41.643Z,72.58
2022-09-28T13:32:44.933Z,72.23
2022-09-28T13:34:49.929Z,71.87
2022-09-28T13:37:26.620Z,71.93
2022-09-28T13:39:56.686Z,70.76
2022-09-28T13:42:02.634Z,70.50
2022-09-28T13:44:28.874Z,71.01
2022-09-28T13:46:36.852Z,71.88
2022-09-28T13:48:48.577Z,71.65
2022-09-28T13:51:19.343Z,71.83
2022-09-28T13:53:27.574Z,72.00
2022-09-28T13:55:34.516Z,71.07
2022-09-28T13:57:43.837Z,71.83
2022-09-28T13:59:55.408Z,71.05
2022-09-28T14:02:06.355Z,69.96
2022-09-28T14:04:19.624Z,72.18
2022-09-28T14:06:25.093Z,72.57
2022-09-28T14:08:40.049Z,71.56
2022-09-28T14:10:51.600Z,69.58
2022-09-28T14:12:56.468Z,72.31
2022-09-28T14:15:00.026Z,70.30
2022-09-28T14:17:50.431Z,72.27
2022-09-28T14:19:54.770Z,69.33
2022-09-28T14:22:08.959Z,70.19
2022-09-28T14:24:23.155Z,70.49
2022-09-28T14:26:52.021Z,70.54
2022-09-28T14:29:15.901Z,72.62
2022-09-28T14:31:25.704Z,70.25
2022-09-28T14:33:29.855Z,71.91
2022-09-28T14:35:34.234Z,71.67
2022-09-28T14:37:56.194Z,72.56
2022-09-28T14:40:16.884Z,71.80
2022-09-28T14:42:21.950Z,71.73
2022-09-28T14:44:26.373Z,70.26
2022-09-28T14:46:34.932Z,70.55
2022-09-28T14:48:45.988Z,70.89
2022-09-28T14:50:49.981Z,72.01
2022-09-28T14:52:54.754Z,71.48
2022-09-28T14:54:58.695Z,71.60
2022-09-28T14:57:08.868Z,73.96
2022-09-28T14:59:15.617Z,74.57
2022-09-28T15:01:22.037Z,75.61
2022-09-28T15:03:25.548Z,75.55
2022-09-28T15:05:29.803Z,76.67
2022-09-28T15:07:46.861Z,75.36
2022-09-28T15:09:51.351Z,77.40
2022-09-28T15:11:57.574Z,76.34
2022-09-28T15:14:07.133Z,77.14
2022-09-28T15:16:13.329Z,78.05
2022-09-28T15:18:49.322Z,77.65
2022-09-28T15:20:54.284Z,77.80
2022-09-28T15:22:58.979Z,76.61
2022-09-28T15:25:03.328Z,77.44
2022-09-28T15:27:16.017Z,77.50
2022-09-28T15:29:20.067Z,77.18
2022-09-28T15:31:25.614Z,78.61
2022-09-28T15:33:47.294Z,78.51
2022-09-28T15:35:56.420Z,78.85
2022-09-28T15:37:59.525Z,78.87
2022-09-28T15:40:03.239Z,78.93
2022-09-28T15:42:07.070Z,79.61
2022-09-28T15:44:42.881Z,79.46
2022-09-28T15:46:48.963Z,78.79
2022-09-28T15:48:55.384Z,80.18
2022-09-28T15:51:05.050Z,79.29
2022-09-28T15:53:08.300Z,80.14
2022-09-28T15:55:20.817Z,81.11
2022-09-28T15:57:36.916Z,79.77
2022-09-28T15:59:41.166Z,80.52
2022-09-28T16:01:44.704Z,81.16
2022-09-28T16:03:47.878Z,82.08
2022-09-28T16:05:53.126Z,80.09
2022-09-28T16:07:57.618Z,82.01
2022-09-28T16:10:04.742Z,82.88
2022-09-28T16:12:10.912Z,82.91
2022-09-28T16:14:19.425Z,84.05
2022-09-28T16:16:26.940Z,83.73
2022-09-28T16:18:30.780Z,83.62
2022-09-28T16:20:35.582Z,83.23
2022-09-28T16:22:38.654Z,82.93
2022-09-28T16:24:43.147Z,82.06
2022-09-28T16:26:46.141Z,81.96
2022-09-28T16:28:51.805Z,82.10
2022-09-28T16:31:02.857Z,82.30
2022-09-28T16:33:07.461Z,82.00
2022-09-28T16:35:19.807Z,83.78
2022-09-28T16:37:32.332Z,82.63
2022-09-28T16:39:36.111Z,83.58
2022-09-28T16:41:41.596Z,84.06
2022-09-28T16:43:46.596Z,85.29
2022-09-28T16:45:50.304Z,85.10
2022-09-28T16:47:53.539Z,86.50
2022-09-28T16:49:56.625Z,86.69
2022-09-28T16:52:00.353Z,87.52
2022-09-28T16:54:32.267Z,87.80
2022-09-28T16:56:36.440Z,87.11
2022-09-28T16:58:42.442Z,87.24
2022-09-28T17:00:45.730Z,88.05
2022-09-28T17:02:49.012Z,88.27
2022-09-28T17:04:52.913Z,87.97
2022-09-28T17:07:00.429Z,87.62
2022-09-28T17:09:06.846Z,86.99
2022-09-28T17:11:17.937Z,87.16
2022-09-28T17:13:27.080Z,87.35
2022-09-28T17:15:32.062Z,86.93
2022-09-28T17:17:35.455Z,86.95
2022-09-28T17:19:38.554Z,86.69
2022-09-28T17:21:41.971Z,87.18
2022-09-28T17:23:45.136Z,86.66
2022-09-28T17:25:48.367Z,87.24
2022-09-28T17:27:52.634Z,87.30
2022-09-28T17:29:55.762Z,87.05
2022-09-28T17:32:00.257Z,87.56
2022-09-28T17:34:03.317Z,88.01
2022-09-28T17:36:08.283Z,87.55
2022-09-28T17:38:12.771Z,87.44
2022-09-28T17:40:19.973Z,87.18
2022-09-28T17:42:23.069Z,88.17
2022-09-28T17:44:26.220Z,87.76
2022-09-28T17:46:30.839Z,87.82
2022-09-28T17:48:35.856Z,88.17
2022-09-28T17:50:42.148Z,89.07
2022-09-28T17:52:47.469Z,89.09
2022-09-28T17:54:51.343Z,88.85
2022-09-28T17:56:54.827Z,88.92
2022-09-28T17:58:59.989Z,90.02
2022-09-28T18:01:03.090Z,89.15
2022-09-28T18:03:10.699Z,89.70
2022-09-28T18:05:15.838Z,88.32
2022-09-28T18:07:19.032Z,88.96
2022-09-28T18:09:25.291Z,90.41
2022-09-28T18:11:29.011Z,88.92
2022-09-28T18:13:32.231Z,89.73
2022-09-28T18:15:35.908Z,90.01
2022-09-28T18:17:39.916Z,89.54
2022-09-28T18:19:43.429Z,91.12
2022-09-28T18:21:48.246Z,90.28
2022-09-28T18:23:51.375Z,89.59
2022-09-28T18:25:54.607Z,90.50
2022-09-28T18:28:00.134Z,90.87
2022-09-28T18:30:04.068Z,91.53
2022-09-28T18:32:07.470Z,90.98
2022-09-28T18:34:11.216Z,91.77
2022-09-28T18:36:14.580Z,90.61
2022-09-28T18:38:19.444Z,90.62
2022-09-28T18:40:22.815Z,91.63
2022-09-28T18:42:26.230Z,91.38
2022-09-28T18:44:29.591Z,92.43
2022-09-28T18:46:36.645Z,91.41
2022-09-28T18:48:40.611Z,90.88
2022-09-28T18:50:43.943Z,91.85
2022-09-28T18:52:47.451Z,93.07
2022-09-28T18:54:51.918Z,92.26
2022-09-28T18:56:56.283Z,92.34
2022-09-28T18:59:02.057Z,92.85
2022-09-28T19:01:30.889Z,92.30
2022-09-28T19:03:33.108Z,93.77
2022-09-28T19:05:36.548Z,94.61
2022-09-28T19:07:39.651Z,93.03
2022-09-28T19:09:44.130Z,94.73
2022-09-28T19:11:49.124Z,93.37
2022-09-28T19:13:52.454Z,94.71
2022-09-28T19:15:55.731Z,95.08
2022-09-28T19:17:59.093Z,93.07
2022-09-28T19:20:02.800Z,93.19
2022-09-28T19:22:06.728Z,95.13
2022-09-28T19:24:10.899Z,93.27
2022-09-28T19:26:16.255Z,93.73
2022-09-28T19:28:20.816Z,93.41
2022-09-28T19:30:23.987Z,94.69
2022-09-28T19:32:27.080Z,94.39
2022-09-28T19:34:30.213Z,95.12
2022-09-28T19:36:33.534Z,94.82
2022-09-28T19:38:37.725Z,93.90
2022-09-28T19:40:41.092Z,94.89
2022-09-28T19:42:44.316Z,93.53
2022-09-28T19:44:48.803Z,93.36
2022-09-28T19:46:54.470Z,94.60
2022-09-28T19:49:01.274Z,94.70
2022-09-28T19:51:06.665Z,94.24
2022-09-28T19:53:09.893Z,94.15
2022-09-28T19:55:13.117Z,94.83
2022-09-28T19:57:19.609Z,94.18
2022-09-28T19:59:23.108Z,93.14
2022-09-28T20:01:27.729Z,93.50
2022-09-28T20:03:30.998Z,94.57
2022-09-28T20:05:34.546Z,93.72
2022-09-28T20:07:39.943Z,93.98
2022-09-28T20:09:43.222Z,92.44
2022-09-28T20:11:46.668Z,92.75
2022-09-28T20:13:50.068Z,94.40
2022-09-28T20:15:53.127Z,93.71
2022-09-28T20:17:58.933Z,94.30
2022-09-28T20:20:02.311Z,93.97
2022-09-28T20:22:05.745Z,93.58
2022-09-28T20:24:09.014Z,93.68
2022-09-28T20:26:16.252Z,93.20
2022-09-28T20:28:19.640Z,93.32
2022-09-28T20:30:23.010Z,92.99
2022-09-28T20:32:26.366Z,93.13
2022-09-28T20:34:30.938Z,93.52
2022-09-28T20:36:37.207Z,94.29
2022-09-28T20:38:40.870Z,93.18
2022-09-28T20:40:44.032Z,93.50
2022-09-28T20:42:47.359Z,93.78
2022-09-28T20:44:50.546Z,93.30
2022-09-28T20:46:53.650Z,93.77
2022-09-28T20:48:57.910Z,93.62
2022-09-28T20:51:03.783Z,94.91
2022-09-28T20:53:06.924Z,94.57
2022-09-28T20:55:10.461Z,95.56
2022-09-28T20:57:18.353Z,95.65
2022-09-28T20:59:26.456Z,95.22
2022-09-28T21:01:30.533Z,95.71
2022-09-28T21:03:33.698Z,95.39
2022-09-28T21:05:37.131Z,94.77
2022-09-28T21:07:44.102Z,94.57
2022-09-28T21:09:47.511Z,95.35
2022-09-28T21:11:50.647Z,94.79
2022-09-28T21:13:55.032Z,93.88
2022-09-28T21:16:02.309Z,94.51
2022-09-28T21:18:05.539Z,94.32
2022-09-28T21:20:09.856Z,94.15
2022-09-28T21:22:13.117Z,94.45
2022-09-28T21:24:17.647Z,95.66
2022-09-28T21:26:28.230Z,94.90
2022-09-28T21:28:31.332Z,95.59
2022-09-28T21:30:34.477Z,95.08
2022-09-28T21:32:37.525Z,96.75
2022-09-28T21:34:43.511Z,97.08
2022-09-28T21:36:51.075Z,95.74
2022-09-28T21:38:55.052Z,96.42
2022-09-28T21:41:00.461Z,95.78
2022-09-28T21:43:03.639Z,97.25
2022-09-28T21:45:08.602Z,95.41
2022-09-28T21:47:11.660Z,95.60
2022-09-28T21:49:14.694Z,95.88
2022-09-28T21:51:17.848Z,96.18
2022-09-28T21:53:20.847Z,95.94
2022-09-28T21:55:25.224Z,97.00
2022-09-28T21:57:29.772Z,96.13
2022-09-28T21:59:32.759Z,96.84
2022-09-28T22:01:35.852Z,96.29
2022-09-28T22:03:39.086Z,95.56
2022-09-28T22:05:42.226Z,95.83
2022-09-28T22:07:45.277Z,96.40
2022-09-28T22:09:53.323Z,94.99
2022-09-28T22:11:56.547Z,94.77
2022-09-28T22:14:01.481Z,95.86
2022-09-28T22:16:04.802Z,95.95
2022-09-28T22:18:07.790Z,95.09
2022-09-28T22:20:11.162Z,96.58
2022-09-28T22:22:14.315Z,95.50
2022-09-28T22:24:17.338Z,95.88
2022-09-28T22:26:25.095Z,96.66
2022-09-28T22:28:28.661Z,95.88
2022-09-28T22:30:35.121Z,95.83
2022-09-28T22:32:38.154Z,96.25
2022-09-28T22:34:41.218Z,94.92
2022-09-28T22:36:44.256Z,95.92
2022-09-28T22:38:47.338Z,95.47
2022-09-28T22:40:51.386Z,96.01
2022-09-28T22:42:54.468Z,95.12
2022-09-28T22:45:00.190Z,94.91
2022-09-28T22:47:04.615Z,95.13
2022-09-28T22:49:07.620Z,94.95
2022-09-28T22:51:10.718Z,94.77
2022-09-28T22:53:14.107Z,94.84
2022-09-28T22:55:17.112Z,95.10
2022-09-28T22:57:20.058Z,95.39
2022-09-28T22:59:23.133Z,95.70
2022-09-28T23:01:28.378Z,95.19
2022-09-28T23:03:32.747Z,95.24
2022-09-28T23:05:35.796Z,95.03
2022-09-28T23:07:39.176Z,94.91
2022-09-28T23:09:42.151Z,94.83
2022-09-28T23:11:45.129Z,94.86
2022-09-28T23:13:50.437Z,95.39
2022-09-28T23:15:57.602Z,95.15
2022-09-28T23:18:00.698Z,95.75
2022-09-28T23:20:05.667Z,96.06
2022-09-28T23:22:08.629Z,95.74
2022-09-28T23:24:12.138Z,95.77
2022-09-28T23:26:16.695Z,95.88
2022-09-28T23:28:20.415Z,96.92
2022-09-28T23:30:24.970Z,96.21
2022-09-28T23:32:32.133Z,96.12
2022-09-28T23:34:35.263Z,96.30
2022-09-28T23:36:39.598Z,96.25
2022-09-28T23:38:42.708Z,96.98
2022-09-28T23:40:46.261Z,96.03
2022-09-28T23:42:49.307Z,96.48
2022-09-28T23:44:52.350Z,96.61
2022-09-28T23:46:55.587Z,96.61
2022-09-28T23:48:58.565Z,96.38
2022-09-28T23:51:01.989Z,96.18
2022-09-28T23:53:06.585Z,96.34
2022-09-28T23:55:09.979Z,96.51
2022-09-28T23:57:12.967Z,96.45
2022-09-28T23:59:15.917Z,97.09
